createdAt,value
2019-04-25T00:03:55.524Z,12.80
2019-04-25T00:08:24.868Z,12.90
2019-04-25T00:12:33.354Z,12.90
2019-04-25T00:16:44.140Z,12.90
2019-04-25T00:20:54.702Z,12.90
2019-04-25T00:25:21.872Z,12.80
2019-04-25T00:29:31.854Z,12.70
2019-04-25T00:33:41.983Z,12.70
2019-04-25T00:37:52.214Z,12.60
2019-04-25T00:42:02.403Z,12.60
2019-04-25T00:46:11.470Z,12.50
2019-04-25T00:50:19.943Z,12.50
2019-04-25T00:54:28.478Z,12.60
2019-04-25T00:58:43.061Z,12.50
2019-04-25T01:02:56.749Z,12.60
2019-04-25T01:07:05.687Z,12.60
2019-04-25T01:11:14.159Z,12.70
2019-04-25T01:15:22.746Z,12.70
2019-04-25T01:19:31.230Z,12.70
2019-04-25T01:23:39.991Z,12.80
2019-04-25T01:27:48.590Z,12.70
2019-04-25T01:31:57.661Z,12.70
2019-04-25T01:36:11.123Z,12.70
2019-04-25T01:40:37.400Z,12.70
2019-04-25T01:44:48.035Z,12.70
2019-04-25T01:48:56.636Z,12.60
2019-04-25T01:53:05.203Z,12.50
2019-04-25T01:57:14.322Z,12.50
2019-04-25T02:01:24.129Z,12.50
2019-04-25T02:05:33.804Z,12.40
2019-04-25T02:09:43.573Z,12.30
2019-04-25T02:13:54.284Z,12.30
2019-04-25T02:18:03.795Z,12.30
2019-04-25T02:22:12.539Z,12.30
2019-04-25T02:26:21.120Z,12.30
2019-04-25T02:30:29.672Z,12.20
2019-04-25T02:34:38.278Z,12.20
2019-04-25T02:38:46.788Z,12.10
2019-04-25T02:42:57.315Z,12.10
2019-04-25T02:47:14.835Z,12.10
2019-04-25T02:51:27.905Z,12.00
2019-04-25T02:55:37.649Z,12.00
2019-04-25T02:59:46.457Z,12.00
2019-04-25T03:03:55.018Z,12.00
2019-04-25T03:08:07.974Z,11.80
2019-04-25T03:12:26.607Z,11.70
2019-04-25T03:16:25.163Z,11.70
2019-04-25T03:20:38.976Z,11.70
2019-04-25T03:24:47.467Z,11.60
2019-04-25T03:28:56.348Z,11.60
2019-04-25T03:33:09.615Z,11.50
2019-04-25T03:37:14.991Z,11.50
2019-04-25T03:41:24.528Z,11.60
2019-04-25T03:45:33.333Z,11.60
2019-04-25T03:49:43.321Z,11.70
2019-04-25T03:53:53.465Z,11.60
2019-04-25T03:58:04.913Z,11.60
2019-04-25T04:02:13.487Z,11.60
2019-04-25T04:06:24.077Z,11.70
2019-04-25T04:10:52.013Z,11.60
2019-04-25T04:15:00.575Z,11.60
2019-04-25T04:19:09.118Z,11.50
2019-04-25T04:23:34.272Z,11.50
2019-04-25T04:27:43.788Z,11.50
2019-04-25T04:31:52.883Z,11.60
2019-04-25T04:36:03.892Z,11.60
2019-04-25T04:40:12.617Z,11.60
2019-04-25T04:44:24.125Z,11.50
2019-04-25T04:48:34.219Z,11.50
2019-04-25T04:52:44.047Z,11.50
2019-04-25T04:56:53.671Z,11.50
2019-04-25T05:01:03.636Z,11.60
2019-04-25T05:05:17.164Z,11.60
2019-04-25T05:09:45.285Z,11.80
2019-04-25T05:13:54.190Z,11.80
2019-04-25T05:18:04.056Z,11.80
2019-04-25T05:22:14.822Z,11.80
2019-04-25T05:26:24.906Z,11.80
2019-04-25T05:30:35.554Z,11.80
2019-04-25T05:34:44.092Z,11.90
2019-04-25T05:38:54.231Z,12.00
2019-04-25T05:43:07.060Z,12.00
2019-04-25T05:47:16.366Z,12.10
2019-04-25T05:51:25.984Z,12.10
2019-04-25T05:55:34.460Z,12.20
2019-04-25T05:59:43.639Z,12.30
2019-04-25T06:03:53.604Z,12.30
2019-04-25T06:08:04.151Z,12.40
2019-04-25T06:12:18.183Z,12.40
2019-04-25T06:16:29.298Z,12.40
2019-04-25T06:20:38.187Z,12.30
2019-04-25T06:24:48.354Z,12.30
2019-04-25T06:28:59.495Z,12.30
2019-04-25T06:33:09.656Z,12.40
2019-04-25T06:37:24.549Z,12.50
2019-04-25T06:41:34.040Z,12.60
2019-04-25T06:45:44.255Z,12.70
2019-04-25T06:49:53.224Z,12.70
2019-04-25T06:54:03.327Z,12.70
2019-04-25T06:58:14.307Z,12.70
2019-04-25T07:02:22.730Z,12.80
2019-04-25T07:06:33.813Z,13.00
2019-04-25T07:10:44.483Z,13.10
2019-04-25T07:14:53.928Z,13.20
2019-04-25T07:19:04.547Z,13.30
2019-04-25T07:23:13.831Z,13.40
2019-04-25T07:27:40.407Z,13.50
2019-04-25T07:31:56.499Z,13.50
2019-04-25T07:36:05.042Z,13.60
2019-04-25T07:40:14.752Z,13.70
2019-04-25T07:44:35.264Z,13.70
2019-04-25T07:48:36.301Z,13.80
2019-04-25T07:52:44.274Z,13.80
2019-04-25T07:56:54.788Z,13.80
2019-04-25T08:01:03.997Z,13.90
2019-04-25T08:05:14.763Z,13.90
2019-04-25T08:09:24.287Z,14.10
2019-04-25T08:13:35.211Z,14.10
2019-04-25T08:17:57.752Z,14.10
2019-04-25T08:22:06.389Z,14.40
2019-04-25T08:26:15.211Z,14.80
2019-04-25T08:30:24.061Z,15.20
2019-04-25T08:34:34.413Z,15.30
2019-04-25T08:38:44.552Z,15.50
2019-04-25T08:42:53.808Z,15.80
2019-04-25T08:47:04.013Z,16.00
2019-04-25T08:51:14.282Z,16.10
2019-04-25T08:55:24.422Z,16.10
2019-04-25T08:59:44.749Z,16.00
2019-04-25T09:03:53.847Z,16.00
2019-04-25T09:08:04.126Z,16.10
2019-04-25T09:12:14.019Z,16.50
2019-04-25T09:16:23.951Z,16.80
2019-04-25T09:20:34.865Z,17.10
2019-04-25T09:24:44.419Z,17.10
2019-04-25T09:28:53.754Z,17.00
2019-04-25T09:33:03.058Z,17.00
2019-04-25T09:37:14.167Z,17.00
2019-04-25T09:41:23.640Z,16.80
2019-04-25T09:45:39.752Z,16.70
2019-04-25T09:49:48.779Z,16.70
2019-04-25T09:54:03.413Z,16.70
2019-04-25T09:58:23.844Z,16.70
2019-04-25T10:02:32.456Z,16.80
2019-04-25T10:06:41.056Z,16.80
2019-04-25T10:10:49.539Z,16.90
2019-04-25T10:15:07.208Z,17.00
2019-04-25T10:19:15.815Z,17.30
2019-04-25T10:23:24.330Z,17.60
2019-04-25T10:27:33.183Z,17.70
2019-04-25T10:31:41.702Z,17.60
2019-04-25T10:35:57.898Z,17.50
2019-04-25T10:40:00.728Z,17.80
2019-04-25T10:44:09.579Z,18.00
2019-04-25T10:48:18.055Z,18.00
2019-04-25T10:52:27.333Z,18.00
2019-04-25T10:56:36.240Z,17.90
2019-04-25T11:00:47.776Z,17.90
2019-04-25T11:05:07.773Z,18.10
2019-04-25T11:09:20.598Z,18.20
2019-04-25T11:13:29.567Z,18.10
2019-04-25T11:17:38.107Z,18.20
2019-04-25T11:21:46.672Z,18.40
2019-04-25T11:25:55.787Z,18.60
2019-04-25T11:30:11.172Z,18.70
2019-04-25T11:34:17.151Z,18.80
2019-04-25T11:38:39.524Z,18.80
2019-04-25T11:42:48.266Z,18.80
2019-04-25T11:46:57.075Z,18.70
2019-04-25T11:51:06.594Z,19.10
2019-04-25T11:55:15.952Z,19.10
2019-04-25T11:59:24.441Z,19.20
2019-04-25T12:03:33.662Z,19.60
2019-04-25T12:07:43.261Z,20.10
2019-04-25T12:11:54.305Z,20.40
2019-04-25T12:16:04.143Z,20.60
2019-04-25T12:20:14.127Z,20.80
2019-04-25T12:24:23.924Z,21.00
2019-04-25T12:28:33.855Z,21.20
2019-04-25T12:32:44.071Z,21.30
2019-04-25T12:36:54.428Z,21.40
2019-04-25T12:41:04.081Z,21.50
2019-04-25T12:45:34.276Z,21.50
2019-04-25T12:49:43.820Z,21.50
2019-04-25T12:53:54.690Z,21.50
2019-04-25T12:58:03.538Z,21.70
2019-04-25T13:02:13.357Z,21.90
2019-04-25T13:06:23.866Z,21.90
2019-04-25T13:10:33.285Z,21.80
2019-04-25T13:14:41.948Z,22.00
2019-04-25T13:18:50.978Z,22.10
2019-04-25T13:23:00.506Z,22.30
2019-04-25T13:27:14.203Z,22.50
2019-04-25T13:31:31.274Z,22.50
2019-04-25T13:35:43.858Z,22.30
2019-04-25T13:39:53.960Z,22.50
2019-04-25T13:44:04.681Z,22.60
2019-04-25T13:48:13.278Z,22.40
2019-04-25T13:52:22.776Z,22.30
2019-04-25T13:56:33.683Z,22.10
2019-04-25T14:00:44.140Z,22.10
2019-04-25T14:04:53.009Z,22.10
2019-04-25T14:09:03.192Z,21.90
2019-04-25T14:13:13.438Z,21.70
2019-04-25T14:17:40.173Z,21.60
2019-04-25T14:21:49.407Z,21.50
2019-04-25T14:25:58.246Z,21.40
2019-04-25T14:30:08.596Z,21.20
2019-04-25T14:34:19.165Z,20.90
2019-04-25T14:38:27.675Z,20.60
2019-04-25T14:42:36.223Z,20.50
2019-04-25T14:46:44.745Z,20.40
2019-04-25T14:50:53.228Z,20.20
2019-04-25T14:55:06.571Z,20.10
2019-04-25T14:59:15.076Z,20.00
2019-04-25T15:03:24.082Z,19.90
2019-04-25T15:07:32.734Z,19.70
2019-04-25T15:11:41.254Z,19.60
2019-04-25T15:15:49.825Z,19.70
2019-04-25T15:19:58.371Z,19.60
2019-04-25T15:24:06.957Z,19.50
2019-04-25T15:28:15.395Z,19.50
2019-04-25T15:32:26.173Z,19.40
2019-04-25T15:36:42.928Z,19.30
2019-04-25T15:41:02.140Z,19.20
2019-04-25T15:45:28.972Z,19.10
2019-04-25T15:49:37.563Z,18.90
2019-04-25T15:53:46.115Z,18.70
2019-04-25T15:57:54.787Z,18.60
2019-04-25T16:02:08.329Z,18.40
2019-04-25T16:06:15.195Z,18.20
2019-04-25T16:10:23.630Z,18.00
2019-04-25T16:14:32.111Z,17.80
2019-04-25T16:18:41.186Z,17.60
2019-04-25T16:22:49.758Z,17.60
2019-04-25T16:26:58.478Z,17.50
2019-04-25T16:31:08.599Z,17.40
2019-04-25T16:35:17.242Z,17.40
2019-04-25T16:39:27.381Z,17.40
2019-04-25T16:43:37.602Z,17.40
2019-04-25T16:47:46.181Z,17.40
2019-04-25T16:51:54.653Z,17.30
2019-04-25T16:56:03.406Z,17.30
2019-04-25T17:00:30.860Z,17.30
2019-04-25T17:04:39.624Z,17.20
2019-04-25T17:08:48.110Z,17.30
2019-04-25T17:12:57.041Z,17.30
2019-04-25T17:21:50.132Z,17.40
2019-04-25T17:25:58.674Z,17.40
2019-04-25T17:30:07.924Z,17.40
2019-04-25T17:34:24.044Z,17.40
2019-04-25T17:38:37.571Z,17.40
2019-04-25T17:42:46.299Z,17.30
2019-04-25T17:47:05.839Z,17.20
2019-04-25T17:51:05.344Z,17.30
2019-04-25T17:55:14.209Z,17.20
2019-04-25T17:59:22.704Z,16.80
2019-04-25T18:03:31.179Z,16.60
2019-04-25T18:07:39.666Z,16.40
2019-04-25T18:11:48.135Z,16.20
2019-04-25T18:15:58.235Z,16.20
2019-04-25T18:20:12.340Z,16.20
2019-04-25T18:24:39.168Z,16.10
2019-04-25T18:28:49.286Z,16.10
2019-04-25T18:33:10.230Z,16.00
2019-04-25T18:37:27.083Z,15.90
2019-04-25T18:46:12.652Z,15.80
2019-04-25T18:50:23.099Z,16.00
2019-04-25T18:59:12.654Z,15.90
2019-04-25T19:03:39.475Z,15.90
2019-04-25T19:07:48.076Z,15.80
2019-04-25T19:11:56.550Z,15.50
2019-04-25T19:16:05.558Z,15.50
2019-04-25T19:20:14.263Z,15.30
2019-04-25T19:24:22.860Z,15.30
2019-04-25T19:28:31.445Z,15.10
2019-04-25T19:32:40.607Z,15.20
2019-04-25T19:36:51.125Z,15.10
2019-04-25T19:41:04.493Z,15.10
2019-04-25T19:45:13.685Z,15.00
2019-04-25T19:49:22.196Z,15.00
2019-04-25T19:53:30.715Z,15.00
2019-04-25T19:57:39.330Z,15.10
2019-04-25T20:01:48.743Z,15.10
2019-04-25T20:06:02.083Z,15.10
2019-04-25T20:10:27.587Z,15.10
2019-04-25T20:14:36.344Z,15.10
2019-04-25T20:18:45.647Z,15.10
2019-04-25T20:22:54.455Z,14.80
2019-04-25T20:27:03.167Z,14.60
2019-04-25T20:31:11.671Z,14.50
2019-04-25T20:35:20.155Z,14.40
2019-04-25T20:39:28.619Z,14.40
2019-04-25T20:43:37.104Z,14.40
2019-04-25T20:47:46.554Z,14.50
2019-04-25T20:51:55.159Z,14.30
2019-04-25T20:56:03.736Z,14.30
2019-04-25T21:00:12.877Z,14.20
2019-04-25T21:04:40.602Z,14.30
2019-04-25T21:08:50.054Z,14.20
2019-04-25T21:12:58.673Z,14.10
2019-04-25T21:17:08.893Z,14.20
2019-04-25T21:21:17.511Z,14.20
2019-04-25T21:25:26.025Z,14.00
2019-04-25T21:29:34.961Z,14.00
2019-04-25T21:33:43.478Z,14.00
2019-04-25T21:37:52.496Z,14.10
2019-04-25T21:42:20.469Z,14.10
2019-04-25T21:46:29.555Z,13.90
2019-04-25T21:50:38.398Z,13.90
2019-04-25T21:54:48.557Z,14.00
2019-04-25T21:58:57.817Z,14.00
2019-04-25T22:03:07.912Z,14.10
2019-04-25T22:07:16.686Z,13.90
2019-04-25T22:11:26.042Z,13.80
2019-04-25T22:15:34.795Z,13.90
2019-04-25T22:19:43.655Z,14.00
2019-04-25T22:24:03.359Z,14.00
2019-04-25T22:28:03.085Z,13.90
2019-04-25T22:32:31.696Z,13.80
2019-04-25T22:36:41.031Z,13.70
2019-04-25T22:40:49.997Z,13.60
2019-04-25T22:45:00.386Z,13.60
2019-04-25T22:49:09.048Z,13.50
2019-04-25T22:53:23.169Z,13.50
2019-04-25T22:57:28.040Z,13.60
2019-04-25T23:01:54.507Z,13.60
2019-04-25T23:06:04.042Z,13.50
2019-04-25T23:10:13.527Z,13.60
2019-04-25T23:14:22.040Z,13.60
2019-04-25T23:18:30.548Z,13.70
2019-04-25T23:22:39.122Z,13.70
2019-04-25T23:26:55.486Z,13.60
2019-04-25T23:31:11.318Z,13.70
2019-04-25T23:35:29.280Z,13.70
2019-04-25T23:39:31.155Z,13.70
2019-04-25T23:43:39.669Z,13.60
2019-04-25T23:47:48.267Z,13.60
2019-04-25T23:51:56.962Z,13.50
2019-04-25T23:56:05.506Z,13.50
